createdAt,value
2018-10-19T00:00:18.757Z,0.9
2018-10-19T00:02:19.384Z,0.7
2018-10-19T00:04:19.175Z,0.7
2018-10-19T00:06:19.163Z,0.8
2018-10-19T00:08:18.932Z,1.1
2018-10-19T00:10:19.249Z,1.1
2018-10-19T00:12:19.025Z,0.9
2018-10-19T00:14:18.809Z,0.8
2018-10-19T00:16:19.145Z,0.7
2018-10-19T00:18:19.033Z,0.9
2018-10-19T00:20:18.848Z,0.6
2018-10-19T00:22:18.636Z,0.6
2018-10-19T00:24:19.432Z,1
2018-10-19T00:26:19.001Z,0.5
2018-10-19T00:28:18.783Z,0.9
2018-10-19T00:30:18.577Z,0.8
2018-10-19T00:32:19.406Z,1.3
2018-10-19T00:34:19.200Z,0.9
2018-10-19T00:36:19.052Z,0.8
2018-10-19T00:38:18.854Z,0.6
2018-10-19T00:40:19.140Z,0.8
2018-10-19T00:42:18.915Z,1.3
2018-10-19T00:44:18.697Z,0.8
2018-10-19T00:46:18.620Z,0.9
2018-10-19T00:48:19.416Z,1
2018-10-19T00:50:19.307Z,0.9
2018-10-19T00:52:19.109Z,0.7
2018-10-19T00:54:18.913Z,0.5
2018-10-19T00:56:19.051Z,0.9
2018-10-19T00:58:18.826Z,1.2
2018-10-19T01:00:18.605Z,1.1
2018-10-19T01:02:19.411Z,1
2018-10-19T01:04:19.230Z,1
2018-10-19T01:06:18.551Z,0.8
2018-10-19T01:08:19.381Z,0.6
2018-10-19T01:10:18.653Z,0.4
2018-10-19T01:12:19.431Z,0.4
2018-10-19T01:14:19.219Z,0.3
2018-10-19T01:16:18.637Z,0.5
2018-10-19T01:18:19.501Z,0.8
2018-10-19T01:20:19.302Z,1.3
2018-10-19T01:22:19.423Z,0.9
2018-10-19T01:24:19.201Z,0.8
2018-10-19T01:26:19.287Z,0.6
2018-10-19T01:28:19.048Z,0.8
2018-10-19T01:30:18.853Z,0.4
2018-10-19T01:32:18.667Z,1.1
2018-10-19T01:34:19.445Z,0.6
2018-10-19T01:36:18.732Z,0.5
2018-10-19T01:38:19.494Z,0.9
2018-10-19T01:40:18.750Z,0.6
2018-10-19T01:42:18.876Z,0.6
2018-10-19T01:44:18.646Z,1.6
2018-10-19T01:46:19.063Z,0.7
2018-10-19T01:48:18.840Z,1.1
2018-10-19T01:50:18.698Z,0.9
2018-10-19T01:52:19.477Z,0.6
2018-10-19T01:54:19.259Z,0.9
2018-10-19T01:56:18.653Z,0.8
2018-10-19T01:58:19.413Z,0.4
2018-10-19T02:00:19.200Z,0.4
2018-10-19T02:02:18.984Z,0.4
2018-10-19T02:04:18.814Z,0.6
2018-10-19T02:06:19.242Z,0.7
2018-10-19T02:08:19.054Z,0.5
2018-10-19T02:10:19.304Z,0.5
2018-10-19T02:12:18.793Z,0.6
2018-10-19T02:14:18.583Z,0.5
2018-10-19T02:16:19.185Z,0.9
2018-10-19T02:18:19.074Z,0.4
2018-10-19T02:20:18.948Z,0.9
2018-10-19T02:22:18.745Z,0.4
2018-10-19T02:24:19.538Z,0.6
2018-10-19T02:26:19.322Z,0.8
2018-10-19T02:28:19.112Z,0.8
2018-10-19T02:30:18.959Z,0.6
2018-10-19T02:32:18.755Z,0.7
2018-10-19T02:34:18.539Z,0.4
2018-10-19T02:36:19.342Z,0.4
2018-10-19T02:38:19.114Z,0.7
2018-10-19T02:40:19.435Z,1
2018-10-19T02:42:19.194Z,0.5
2018-10-19T02:44:18.973Z,0.6
2018-10-19T02:46:18.614Z,0.3
2018-10-19T02:48:19.396Z,0.4
2018-10-19T02:50:19.180Z,0.7
2018-10-19T02:52:18.952Z,0.7
2018-10-19T02:54:18.724Z,0.5
2018-10-19T02:56:18.943Z,0.6
2018-10-19T02:58:18.707Z,0.7
2018-10-19T03:00:19.490Z,0.8
2018-10-19T03:02:19.265Z,1.2
2018-10-19T03:04:19.067Z,0.9
2018-10-19T03:06:19.349Z,0.7
2018-10-19T03:08:19.126Z,0.7
2018-10-19T03:10:19.451Z,0.3
2018-10-19T03:12:19.240Z,0.4
2018-10-19T03:14:19.027Z,0.5
2018-10-19T03:16:18.886Z,0.8
2018-10-19T03:18:18.746Z,0.4
2018-10-19T03:20:19.515Z,0.7
2018-10-19T03:22:19.291Z,0.6
2018-10-19T03:24:19.065Z,0.5
2018-10-19T03:26:18.636Z,0.4
2018-10-19T03:28:19.403Z,0.6
2018-10-19T03:30:19.171Z,0.6
2018-10-19T03:32:18.909Z,0.4
2018-10-19T03:34:18.682Z,0.7
2018-10-19T03:36:18.978Z,0.7
2018-10-19T03:38:18.727Z,0.8
2018-10-19T03:40:19.017Z,0.6
2018-10-19T03:42:18.791Z,0.8
2018-10-19T03:44:18.575Z,0.6
2018-10-19T03:46:19.451Z,0.7
2018-10-19T03:48:19.225Z,0.4
2018-10-19T03:50:19.034Z,0.8
2018-10-19T03:52:18.560Z,0.5
2018-10-19T03:54:19.333Z,0.8
2018-10-19T03:56:18.604Z,0.7
2018-10-19T03:58:19.402Z,1.1
2018-10-19T04:00:19.201Z,0.6
2018-10-19T04:02:19.010Z,0.5
2018-10-19T04:04:18.769Z,1.2
2018-10-19T04:06:19.044Z,0.7
2018-10-19T04:08:18.786Z,0.8
2018-10-19T04:10:19.034Z,0.9
2018-10-19T04:12:18.799Z,0.5
2018-10-19T04:14:18.600Z,0.9
2018-10-19T04:16:19.467Z,0.4
2018-10-19T04:18:19.308Z,0.5
2018-10-19T04:20:19.080Z,0.9
2018-10-19T04:22:18.860Z,0.9
2018-10-19T04:24:18.684Z,1
2018-10-19T04:26:19.289Z,0.9
2018-10-19T04:28:19.056Z,0.5
2018-10-19T04:30:18.832Z,0.7
2018-10-19T04:32:18.615Z,0.7
2018-10-19T04:34:19.388Z,0.5
2018-10-19T04:36:19.236Z,0.3
2018-10-19T04:38:19.043Z,0.7
2018-10-19T04:40:19.376Z,0.5
2018-10-19T04:42:19.219Z,0.7
2018-10-19T04:44:19.167Z,0.6
2018-10-19T04:46:19.486Z,0.8
2018-10-19T04:48:19.262Z,0.8
2018-10-19T04:50:19.030Z,1.2
2018-10-19T04:52:18.815Z,0.9
2018-10-19T04:54:18.580Z,0.7
2018-10-19T04:56:18.705Z,0.7
2018-10-19T04:58:19.489Z,0.6
2018-10-19T05:00:19.390Z,0.5
2018-10-19T05:02:19.223Z,0.9
2018-10-19T05:04:19.044Z,0.6
2018-10-19T05:06:19.060Z,1.1
2018-10-19T05:08:19.042Z,0.7
2018-10-19T05:10:18.558Z,1
2018-10-19T05:12:19.348Z,0.5
2018-10-19T05:14:19.280Z,1.5
2018-10-19T05:16:19.185Z,0.9
2018-10-19T05:18:19.090Z,1.4
2018-10-19T05:20:19.079Z,1.3
2018-10-19T05:22:18.855Z,0.7
2018-10-19T05:24:18.635Z,1.4
2018-10-19T05:26:19.207Z,1
2018-10-19T05:28:19.023Z,1.1
2018-10-19T05:30:18.814Z,0.5
2018-10-19T05:32:19.495Z,0.8
2018-10-19T05:34:19.266Z,1
2018-10-19T05:36:19.018Z,1.2
2018-10-19T05:38:18.786Z,1.7
2018-10-19T05:40:19.082Z,1.1
2018-10-19T05:42:18.861Z,1.1
2018-10-19T05:44:18.658Z,0.9
2018-10-19T05:46:18.845Z,1.4
2018-10-19T05:48:18.614Z,1.1
2018-10-19T05:50:19.422Z,1.5
2018-10-19T05:52:19.173Z,1.5
2018-10-19T05:54:18.949Z,1.6
2018-10-19T05:56:18.832Z,1.1
2018-10-19T05:58:18.707Z,1
2018-10-19T06:00:19.478Z,1
2018-10-19T06:02:19.312Z,1.6
2018-10-19T06:04:19.489Z,1.2
2018-10-19T06:06:19.272Z,1
2018-10-19T06:08:19.017Z,1.4
2018-10-19T06:10:19.342Z,1.1
2018-10-19T06:12:19.117Z,0.9
2018-10-19T06:14:18.913Z,1.2
2018-10-19T06:16:19.404Z,1
2018-10-19T06:18:19.256Z,1.1
2018-10-19T06:20:19.051Z,1
2018-10-19T06:22:18.848Z,1
2018-10-19T06:24:18.629Z,1.1
2018-10-19T06:26:18.834Z,0.9
2018-10-19T06:28:18.771Z,2
2018-10-19T06:30:18.568Z,1.8
2018-10-19T06:32:19.316Z,1.1
2018-10-19T06:34:19.083Z,0.9
2018-10-19T06:36:18.826Z,0.9
2018-10-19T06:38:18.609Z,1.3
2018-10-19T06:40:18.856Z,1.1
2018-10-19T06:42:18.605Z,1.6
2018-10-19T06:44:19.390Z,1.4
2018-10-19T06:46:18.630Z,1.7
2018-10-19T06:48:19.408Z,1
2018-10-19T06:50:19.395Z,1.4
2018-10-19T06:52:19.350Z,1
2018-10-19T06:54:19.137Z,1.2
2018-10-19T06:56:19.343Z,1.3
2018-10-19T06:58:19.128Z,0.9
2018-10-19T07:00:18.890Z,1.2
2018-10-19T07:02:18.651Z,1.2
2018-10-19T07:04:19.441Z,1.2
2018-10-19T07:06:19.098Z,0.7
2018-10-19T07:08:18.952Z,1.7
2018-10-19T07:10:19.365Z,1.1
2018-10-19T07:12:19.223Z,1.2
2018-10-19T07:14:19.239Z,1.2
2018-10-19T07:16:18.761Z,1.4
2018-10-19T07:18:18.622Z,1.3
2018-10-19T07:20:19.406Z,0.9
2018-10-19T07:22:19.196Z,1.1
2018-10-19T07:24:18.993Z,1.1
2018-10-19T07:26:18.893Z,1.2
2018-10-19T07:28:18.696Z,0.9
2018-10-19T07:30:19.549Z,1.6
2018-10-19T07:32:19.316Z,0.8
2018-10-19T07:34:19.091Z,2.5
2018-10-19T07:36:18.803Z,1.1
2018-10-19T07:38:18.680Z,0.9
2018-10-19T07:40:18.954Z,1.1
2018-10-19T07:42:18.900Z,1.3
2018-10-19T07:44:19.036Z,0.8
2018-10-19T07:46:18.605Z,1.4
2018-10-19T07:48:19.410Z,0.8
2018-10-19T07:50:19.378Z,0.9
2018-10-19T07:52:19.149Z,1.2
2018-10-19T07:54:18.944Z,1.2
2018-10-19T07:56:19.219Z,1.5
2018-10-19T07:58:19.008Z,1.1
2018-10-19T08:00:18.933Z,1.6
2018-10-19T08:02:18.885Z,0.8
2018-10-19T08:04:18.625Z,0.9
2018-10-19T08:06:19.359Z,1.3
2018-10-19T08:08:19.133Z,1.7
2018-10-19T08:10:19.408Z,1.7
2018-10-19T08:12:19.225Z,1.2
2018-10-19T08:14:19.010Z,0.8
2018-10-19T08:16:19.477Z,1.3
2018-10-19T08:18:19.343Z,1.1
2018-10-19T08:20:19.228Z,1
2018-10-19T08:22:19.016Z,1
2018-10-19T08:24:18.800Z,1.1
2018-10-19T08:26:18.946Z,0.9
2018-10-19T08:28:18.732Z,0.8
2018-10-19T08:30:19.500Z,1.1
2018-10-19T08:32:19.273Z,0.9
2018-10-19T08:34:19.044Z,1
2018-10-19T08:36:18.772Z,0.9
2018-10-19T08:38:18.565Z,0.8
2018-10-19T08:40:18.854Z,1.1
2018-10-19T08:42:18.617Z,0.9
2018-10-19T08:44:19.386Z,1.1
2018-10-19T08:46:19.137Z,1
2018-10-19T08:48:18.892Z,0.8
2018-10-19T08:50:18.677Z,0.8
2018-10-19T08:52:19.351Z,1.2
2018-10-19T08:54:19.120Z,0.6
2018-10-19T08:56:19.376Z,1.1
2018-10-19T08:58:19.270Z,0.4
2018-10-19T09:00:19.179Z,0.9
2018-10-19T09:02:19.309Z,0.8
2018-10-19T09:04:19.111Z,0.7
2018-10-19T09:06:18.889Z,0.6
2018-10-19T09:08:18.675Z,0.6
2018-10-19T09:10:18.983Z,1
2018-10-19T09:12:18.803Z,1
2018-10-19T09:14:18.586Z,0.4
2018-10-19T09:16:19.260Z,0.5
2018-10-19T09:18:19.206Z,0.7
2018-10-19T09:20:19.165Z,0.5
2018-10-19T09:22:19.027Z,1.1
2018-10-19T09:24:18.831Z,1
2018-10-19T09:26:18.901Z,0.7
2018-10-19T09:28:18.697Z,1.1
2018-10-19T09:30:19.460Z,0.7
2018-10-19T09:32:19.242Z,0.6
2018-10-19T09:34:19.018Z,0.8
2018-10-19T09:36:19.562Z,0.6
2018-10-19T09:38:18.756Z,1
2018-10-19T09:40:19.140Z,0.6
2018-10-19T09:42:19.119Z,0.8
2018-10-19T09:44:18.910Z,1.1
2018-10-19T09:46:19.139Z,0.5
2018-10-19T09:48:18.936Z,0.8
2018-10-19T09:50:18.721Z,0.6
2018-10-19T09:52:19.511Z,0.5
2018-10-19T09:54:19.286Z,0.9
2018-10-19T09:56:19.379Z,0.6
2018-10-19T09:58:19.443Z,0.6
2018-10-19T10:00:19.297Z,0.7
2018-10-19T10:02:19.065Z,1
2018-10-19T10:04:18.836Z,0.4
2018-10-19T10:06:19.392Z,0.5
2018-10-19T10:08:19.198Z,0.5
2018-10-19T10:10:19.479Z,0.7
2018-10-19T10:12:19.258Z,0.7
2018-10-19T10:14:19.060Z,0.5
2018-10-19T10:16:19.192Z,0.5
2018-10-19T10:18:19.059Z,0.8
2018-10-19T10:20:18.981Z,1
2018-10-19T10:22:19.493Z,0.6
2018-10-19T10:24:19.284Z,1
2018-10-19T10:26:18.640Z,1.1
2018-10-19T10:28:19.446Z,0.6
2018-10-19T10:30:19.374Z,0.7
2018-10-19T10:32:19.247Z,0.6
2018-10-19T10:34:19.144Z,1.2
2018-10-19T10:36:18.578Z,0.8
2018-10-19T10:38:19.367Z,1
2018-10-19T10:40:18.707Z,0.5
2018-10-19T10:42:18.688Z,0.8
2018-10-19T10:44:19.457Z,0.9
2018-10-19T10:46:19.202Z,0.5
2018-10-19T10:48:18.984Z,0.6
2018-10-19T10:50:18.767Z,0.4
2018-10-19T10:52:18.545Z,0.6
2018-10-19T10:54:19.334Z,0.7
2018-10-19T10:56:18.584Z,0.4
2018-10-19T10:58:19.369Z,0.6
2018-10-19T11:00:19.135Z,0.5
2018-10-19T11:02:18.929Z,0.6
2018-10-19T11:04:18.703Z,0.6
2018-10-19T11:06:18.839Z,0.6
2018-10-19T11:08:18.608Z,0.3
2018-10-19T11:10:18.883Z,0.6
2018-10-19T11:12:18.981Z,0.4
2018-10-19T11:14:18.782Z,0.8
2018-10-19T11:16:19.105Z,0.4
2018-10-19T11:18:18.962Z,0.7
2018-10-19T11:20:18.866Z,0.7
2018-10-19T11:22:18.651Z,0.5
2018-10-19T11:24:19.445Z,0.7
2018-10-19T11:26:18.709Z,0.3
2018-10-19T11:28:19.497Z,0.8
2018-10-19T11:30:19.317Z,0.5
2018-10-19T11:32:18.999Z,0.3
2018-10-19T11:34:18.776Z,1.4
2018-10-19T11:36:18.879Z,0.5
2018-10-19T11:38:18.691Z,0.3
2018-10-19T11:40:18.968Z,0.3
2018-10-19T11:42:18.741Z,0.3
2018-10-19T11:44:19.506Z,0.4
2018-10-19T11:46:18.627Z,0.5
2018-10-19T11:48:19.421Z,0.6
2018-10-19T11:50:19.290Z,0.6
2018-10-19T11:52:19.060Z,0.4
2018-10-19T11:54:18.833Z,0.3
2018-10-19T11:56:19.252Z,0.7
2018-10-19T11:58:19.131Z,0.5
2018-10-19T12:00:19.093Z,0.6
2018-10-19T12:02:18.876Z,0.4
2018-10-19T12:04:18.643Z,0.7
2018-10-19T12:06:19.183Z,0.5
2018-10-19T12:08:18.969Z,1.1
2018-10-19T12:10:19.229Z,0.5
2018-10-19T12:12:19.003Z,0.5
2018-10-19T12:14:18.795Z,0.4
2018-10-19T12:16:18.992Z,0.5
2018-10-19T12:18:19.198Z,0.4
2018-10-19T12:20:18.051Z,0.4
2018-10-19T12:22:18.860Z,0.4
2018-10-19T12:24:18.649Z,0.8
2018-10-19T12:26:18.968Z,0.9
2018-10-19T12:28:18.746Z,0.4
2018-10-19T12:30:18.581Z,0.5
2018-10-19T12:32:19.355Z,0.8
2018-10-19T12:34:19.151Z,0.5
2018-10-19T12:36:19.255Z,0.5
2018-10-19T12:38:19.054Z,0.3
2018-10-19T12:40:19.324Z,0.3
2018-10-19T12:42:19.118Z,0.4
2018-10-19T12:44:18.902Z,0.9
2018-10-19T12:46:19.411Z,0.5
2018-10-19T12:48:19.210Z,0.6
2018-10-19T12:50:17.998Z,0.5
2018-10-19T12:52:18.765Z,0.3
2018-10-19T12:54:18.619Z,0.7
2018-10-19T12:56:18.685Z,0.5
2018-10-19T12:58:19.466Z,0.2
2018-10-19T13:00:18.269Z,0.4
2018-10-19T13:02:18.291Z,0.6
2018-10-19T13:04:19.078Z,0.6
2018-10-19T13:06:18.638Z,0.8
2018-10-19T13:08:18.433Z,0.6
2018-10-19T13:10:17.737Z,0.8
2018-10-19T13:12:17.561Z,1.2
2018-10-19T13:14:18.368Z,0.9
2018-10-19T13:16:18.211Z,0.5
2018-10-19T13:18:18.300Z,0.9
2018-10-19T13:20:18.097Z,1.1
2018-10-19T13:22:17.922Z,0.6
2018-10-19T13:24:17.832Z,0.6
2018-10-19T13:26:17.831Z,0.7
2018-10-19T13:28:17.607Z,0.6
2018-10-19T13:30:18.390Z,0.4
2018-10-19T13:32:18.177Z,0.7
2018-10-19T13:34:18.017Z,0.5
2018-10-19T13:36:18.360Z,0.3
2018-10-19T13:38:18.169Z,0.6
2018-10-19T13:40:18.576Z,0.6
2018-10-19T13:42:18.359Z,0.9
2018-10-19T13:44:18.194Z,0.4
2018-10-19T13:46:18.455Z,1.1
2018-10-19T13:48:18.260Z,0.5
2018-10-19T13:50:18.042Z,0.5
2018-10-19T13:52:17.886Z,0.8
2018-10-19T13:54:17.698Z,1.1
2018-10-19T13:56:18.294Z,0.7
2018-10-19T13:58:18.163Z,0.5
2018-10-19T14:00:18.054Z,0.7
2018-10-19T14:02:17.858Z,0.8
2018-10-19T14:04:17.665Z,0.7
2018-10-19T14:06:18.475Z,0.6
2018-10-19T14:08:18.285Z,0.4
2018-10-19T14:10:17.553Z,0.5
2018-10-19T14:12:18.374Z,0.5
2018-10-19T14:14:18.192Z,0.7
2018-10-19T14:16:17.937Z,0.5
2018-10-19T14:18:17.830Z,0.8
2018-10-19T14:20:17.613Z,0.4
2018-10-19T14:22:18.404Z,0.4
2018-10-19T14:24:18.203Z,0.6
2018-10-19T14:26:17.909Z,0.6
2018-10-19T14:28:17.743Z,0.6
2018-10-19T14:30:17.632Z,0.4
2018-10-19T14:32:19.419Z,0.8
2018-10-19T14:34:18.243Z,0.6
2018-10-19T14:36:18.042Z,0.6
2018-10-19T14:38:17.841Z,0.6
2018-10-19T14:40:18.224Z,0.8
2018-10-19T14:42:18.003Z,0.6
2018-10-19T14:44:18.825Z,0.7
2018-10-19T14:46:18.524Z,0.4
2018-10-19T14:48:18.354Z,0.5
2018-10-19T14:50:18.143Z,0.6
2018-10-19T14:52:17.930Z,0.3
2018-10-19T14:54:18.709Z,0.5
2018-10-19T14:56:18.295Z,0.5
2018-10-19T14:58:18.115Z,0.9
2018-10-19T15:00:17.913Z,0.3
2018-10-19T15:02:17.728Z,0.4
2018-10-19T15:04:19.509Z,0.4
2018-10-19T15:06:18.875Z,0.4
2018-10-19T15:08:17.662Z,0.4
2018-10-19T15:10:19.285Z,0.3
2018-10-19T15:12:17.682Z,0.7
2018-10-19T15:14:18.476Z,0.7
2018-10-19T15:16:18.748Z,0.4
2018-10-19T15:18:17.699Z,1
2018-10-19T15:20:17.630Z,0.8
2018-10-19T15:22:18.410Z,0.5
2018-10-19T15:24:18.198Z,0.3
2018-10-19T15:26:18.302Z,0.8
2018-10-19T15:28:19.121Z,1
2018-10-19T15:30:18.053Z,0.8
2018-10-19T15:32:19.090Z,0.9
2018-10-19T15:34:18.879Z,0.4
2018-10-19T15:36:19.491Z,0.5
2018-10-19T15:38:18.345Z,0.6
2018-10-19T15:40:17.766Z,0.7
2018-10-19T15:42:18.548Z,0.5
2018-10-19T15:44:18.371Z,0.4
2018-10-19T15:46:19.192Z,1
2018-10-19T15:48:18.989Z,0.5
2018-10-19T15:50:17.792Z,0.6
2018-10-19T15:52:18.590Z,0.7
2018-10-19T15:54:19.413Z,0.7
2018-10-19T15:56:19.305Z,1
2018-10-19T15:58:19.130Z,1
2018-10-19T16:00:19.055Z,0.6
2018-10-19T16:02:18.316Z,0.9
2018-10-19T16:04:19.203Z,0.9
2018-10-19T16:06:19.323Z,0.8
2018-10-19T16:08:19.141Z,0.7
2018-10-19T16:10:19.430Z,0.9
2018-10-19T16:12:19.400Z,0.5
2018-10-19T16:14:19.203Z,0.7
2018-10-19T16:16:18.989Z,0.7
2018-10-19T16:18:18.850Z,0.8
2018-10-19T16:20:18.637Z,0.5
2018-10-19T16:22:19.419Z,0.7
2018-10-19T16:24:19.203Z,0.8
2018-10-19T16:26:18.824Z,0.9
2018-10-19T16:28:18.694Z,0.7
2018-10-19T16:30:18.575Z,0.8
2018-10-19T16:32:19.351Z,1
2018-10-19T16:34:19.135Z,0.8
2018-10-19T16:36:19.277Z,0.9
2018-10-19T16:38:19.064Z,1
2018-10-19T16:40:19.386Z,1
2018-10-19T16:42:19.187Z,0.6
2018-10-19T16:44:18.974Z,1.7
2018-10-19T16:46:18.982Z,1.3
2018-10-19T16:48:18.947Z,0.7
2018-10-19T16:50:18.776Z,0.9
2018-10-19T16:52:18.686Z,0.9
2018-10-19T16:54:18.756Z,1.1
2018-10-19T16:56:19.332Z,1.9
2018-10-19T16:58:19.099Z,1.9
2018-10-19T17:00:18.919Z,1.4
2018-10-19T17:02:18.716Z,1.8
2018-10-19T17:04:19.518Z,2.2
2018-10-19T17:06:19.230Z,2.2
2018-10-19T17:08:18.993Z,1.8
2018-10-19T17:10:19.261Z,2.6
2018-10-19T17:12:19.052Z,2.2
2018-10-19T17:14:18.815Z,2
2018-10-19T17:16:18.674Z,2.2
2018-10-19T17:18:18.543Z,2.2
2018-10-19T17:20:19.333Z,2.5
2018-10-19T17:22:19.105Z,2.2
2018-10-19T17:24:18.975Z,2.4
2018-10-19T17:26:19.472Z,2.6
2018-10-19T17:28:19.254Z,4.7
2018-10-19T17:30:19.214Z,5.3
2018-10-19T17:32:19.311Z,7.6
2018-10-19T17:34:19.083Z,10.3
2018-10-19T17:36:18.993Z,16.3
2018-10-19T17:38:18.771Z,19
2018-10-19T17:40:19.049Z,20
2018-10-19T17:42:18.842Z,23.9
2018-10-19T17:44:18.622Z,18.8
2018-10-19T17:46:19.425Z,11.2
2018-10-19T17:48:19.221Z,9.1
2018-10-19T17:50:19.080Z,8.9
2018-10-19T17:52:18.545Z,8.1
2018-10-19T17:54:19.379Z,7.1
2018-10-19T17:56:18.569Z,5.2
2018-10-19T17:58:19.350Z,5.1
2018-10-19T18:00:19.136Z,5.2
2018-10-19T18:02:18.908Z,6.1
2018-10-19T18:04:18.691Z,6.7
2018-10-19T18:06:18.608Z,6.6
2018-10-19T18:08:19.369Z,6.4
2018-10-19T18:10:18.650Z,5.4
2018-10-19T18:12:19.328Z,4.2
2018-10-19T18:14:19.139Z,3.4
2018-10-19T18:16:18.923Z,4.1
2018-10-19T18:18:18.782Z,4.1
2018-10-19T18:20:18.553Z,7.1
2018-10-19T18:22:19.609Z,6.8
2018-10-19T18:24:19.228Z,6.9
2018-10-19T18:26:18.509Z,6
2018-10-19T18:28:19.274Z,5.6
2018-10-19T18:30:19.046Z,4.9
2018-10-19T18:32:18.825Z,5.4
2018-10-19T18:34:18.608Z,4
2018-10-19T18:36:19.136Z,4.4
2018-10-19T18:38:18.915Z,3.8
2018-10-19T18:40:19.186Z,4.8
2018-10-19T18:42:19.242Z,3.9
2018-10-19T18:44:19.013Z,5.7
2018-10-19T18:46:18.651Z,8.2
2018-10-19T18:48:19.423Z,8.8
2018-10-19T18:50:19.404Z,6.9
2018-10-19T18:52:19.102Z,7.4
2018-10-19T18:54:18.868Z,9.7
2018-10-19T18:56:19.080Z,9.1
2018-10-19T18:58:18.882Z,9.5
2018-10-19T19:00:18.807Z,8.4
2018-10-19T19:02:18.600Z,6
2018-10-19T19:04:19.378Z,5
2018-10-19T19:06:18.855Z,4.6
2018-10-19T19:08:18.598Z,4.6
2018-10-19T19:10:18.850Z,5.1
2018-10-19T19:12:18.626Z,4
2018-10-19T19:14:19.402Z,4.8
2018-10-19T19:16:18.949Z,4.7
2018-10-19T19:18:18.840Z,4.5
2018-10-19T19:20:18.607Z,4.6
2018-10-19T19:22:19.398Z,3.9
2018-10-19T19:24:19.182Z,5.5
2018-10-19T19:26:18.812Z,5.9
2018-10-19T19:28:18.590Z,4.7
2018-10-19T19:30:19.421Z,5.8
2018-10-19T19:32:19.307Z,5.3
2018-10-19T19:34:19.107Z,6.2
2018-10-19T19:36:19.397Z,6.2
2018-10-19T19:38:19.153Z,7.5
2018-10-19T19:40:19.508Z,8.5
2018-10-19T19:42:19.277Z,7.4
2018-10-19T19:44:19.075Z,7.6
2018-10-19T19:46:18.655Z,7
2018-10-19T19:48:19.454Z,6.7
2018-10-19T19:50:19.221Z,6.9
2018-10-19T19:52:19.023Z,7.7
2018-10-19T19:54:18.792Z,6.9
2018-10-19T19:56:19.329Z,6.8
2018-10-19T19:58:19.093Z,8.1
2018-10-19T20:00:18.873Z,7.7
2018-10-19T20:02:18.640Z,8.6
2018-10-19T20:04:19.438Z,6.4
2018-10-19T20:06:19.254Z,5.6
2018-10-19T20:08:19.338Z,6.3
2018-10-19T20:10:18.925Z,4.8
2018-10-19T20:12:18.800Z,5
2018-10-19T20:14:18.738Z,5.1
2018-10-19T20:16:18.941Z,5.7
2018-10-19T20:18:18.914Z,5.4
2018-10-19T20:20:18.945Z,4.9
2018-10-19T20:22:18.712Z,4.9
2018-10-19T20:24:19.469Z,5.5
2018-10-19T20:26:19.031Z,4.8
2018-10-19T20:28:19.041Z,6.6
2018-10-19T20:30:18.810Z,6.2
2018-10-19T20:32:18.628Z,5.9
2018-10-19T20:34:18.627Z,6.2
2018-10-19T20:36:18.945Z,5.9
2018-10-19T20:38:18.718Z,7.9
2018-10-19T20:40:18.997Z,9.1
2018-10-19T20:42:18.744Z,9.2
2018-10-19T20:44:18.513Z,8.6
2018-10-19T20:46:19.188Z,7.7
2018-10-19T20:48:18.943Z,6.8
2018-10-19T20:50:18.727Z,8.5
2018-10-19T20:52:19.518Z,6.8
2018-10-19T20:54:19.276Z,8.4
2018-10-19T20:56:19.433Z,6.7
2018-10-19T20:58:19.199Z,8
2018-10-19T21:00:18.960Z,7.7
2018-10-19T21:02:18.730Z,7
2018-10-19T21:04:18.496Z,5.6
2018-10-19T21:06:19.193Z,7.2
2018-10-19T21:08:18.971Z,6.9
2018-10-19T21:10:19.211Z,6.8
2018-10-19T21:12:19.008Z,6
2018-10-19T21:14:18.769Z,6.1
2018-10-19T21:16:18.855Z,6.4
2018-10-19T21:18:18.705Z,5.8
2018-10-19T21:20:19.478Z,5.5
2018-10-19T21:22:19.240Z,5.4
2018-10-19T21:24:19.003Z,6.2
2018-10-19T21:26:19.034Z,4.2
2018-10-19T21:28:18.820Z,5.3
2018-10-19T21:30:18.617Z,4.3
2018-10-19T21:32:19.378Z,5.4
2018-10-19T21:34:19.135Z,4.4
2018-10-19T21:36:18.610Z,4.2
2018-10-19T21:38:19.426Z,5
2018-10-19T21:40:18.689Z,4.3
2018-10-19T21:42:19.459Z,4.7
2018-10-19T21:44:19.219Z,5.6
2018-10-19T21:46:19.311Z,4.3
2018-10-19T21:48:19.080Z,4
2018-10-19T21:50:18.854Z,5.1
2018-10-19T21:52:18.610Z,4.8
2018-10-19T21:54:19.379Z,4.9
2018-10-19T21:56:19.184Z,4
2018-10-19T21:58:18.979Z,5.4
2018-10-19T22:00:18.829Z,4.9
2018-10-19T22:02:18.609Z,5.1
2018-10-19T22:04:19.384Z,5.6
2018-10-19T22:06:18.636Z,4.3
2018-10-19T22:08:19.467Z,4.8
2018-10-19T22:10:18.764Z,4.8
2018-10-19T22:12:18.541Z,3.4
2018-10-19T22:14:19.286Z,5
2018-10-19T22:16:18.893Z,3.5
2018-10-19T22:18:18.736Z,4
2018-10-19T22:20:18.518Z,4
2018-10-19T22:22:19.285Z,4.2
2018-10-19T22:24:19.021Z,4.4
2018-10-19T22:26:19.575Z,4.1
2018-10-19T22:28:19.343Z,3.6
2018-10-19T22:30:19.148Z,3.7
2018-10-19T22:32:18.922Z,2.9
2018-10-19T22:34:18.719Z,3.1
2018-10-19T22:36:19.091Z,3.1
2018-10-19T22:38:18.851Z,2.6
2018-10-19T22:40:19.093Z,3.4
2018-10-19T22:42:18.867Z,2.7
2018-10-19T22:44:18.654Z,2.9
2018-10-19T22:46:18.797Z,3.4
2018-10-19T22:48:18.560Z,2.8
2018-10-19T22:50:19.386Z,2.9
2018-10-19T22:52:19.163Z,3.6
2018-10-19T22:54:18.932Z,3.5
2018-10-19T22:56:18.918Z,2.6
2018-10-19T22:58:18.692Z,3.7
2018-10-19T23:00:19.509Z,3
2018-10-19T23:02:19.264Z,3.6
2018-10-19T23:04:19.057Z,3.3
2018-10-19T23:06:19.454Z,3.1
2018-10-19T23:08:19.232Z,2.6
2018-10-19T23:10:18.545Z,2.4
2018-10-19T23:12:19.324Z,3.4
2018-10-19T23:14:19.102Z,2.6
2018-10-19T23:16:18.633Z,3.1
2018-10-19T23:18:19.479Z,3.3
2018-10-19T23:20:19.387Z,2.5
2018-10-19T23:22:18.805Z,2.7
2018-10-19T23:24:18.574Z,3
2018-10-19T23:26:19.302Z,3
2018-10-19T23:28:19.050Z,2.8
2018-10-19T23:30:18.803Z,2.9
2018-10-19T23:32:18.580Z,3.4
2018-10-19T23:34:19.340Z,2.5
2018-10-19T23:36:19.222Z,2.4
2018-10-19T23:38:18.982Z,2.6
2018-10-19T23:40:19.268Z,3.1
2018-10-19T23:42:18.923Z,2.8
2018-10-19T23:44:18.670Z,2.8
2018-10-19T23:46:19.313Z,2.2
2018-10-19T23:48:19.098Z,2.1
2018-10-19T23:50:18.891Z,3
2018-10-19T23:52:18.660Z,2.7
2018-10-19T23:54:19.428Z,2.9
2018-10-19T23:56:18.666Z,2.9
2018-10-19T23:58:19.438Z,3.2
